sensor_id;sensor_type;location;lat;lon;timestamp;pressure;altitude;pressure_sealevel;temperature;humidity
56894;BME280;43392;50.078;13.704;2024-01-27T00:00:55;98124.78;;;4.32;71.03
56894;BME280;43392;50.078;13.704;2024-01-27T00:03:22;98125.78;;;4.25;71.18
56894;BME280;43392;50.078;13.704;2024-01-27T00:05:50;98118.69;;;4.19;70.89
56894;BME280;43392;50.078;13.704;2024-01-27T00:08:16;98124.78;;;4.13;70.85
56894;BME280;43392;50.078;13.704;2024-01-27T00:10:43;98128.28;;;4.07;70.94
56894;BME280;43392;50.078;13.704;2024-01-27T00:13:11;98133.19;;;4.03;71.02
56894;BME280;43392;50.078;13.704;2024-01-27T00:15:38;98129.09;;;4.00;70.94
56894;BME280;43392;50.078;13.704;2024-01-27T00:18:04;98135.00;;;4.02;70.95
56894;BME280;43392;50.078;13.704;2024-01-27T00:20:31;98142.97;;;4.02;70.67
56894;BME280;43392;50.078;13.704;2024-01-27T00:22:59;98139.09;;;3.98;70.65
56894;BME280;43392;50.078;13.704;2024-01-27T00:25:26;98131.34;;;3.97;70.75
56894;BME280;43392;50.078;13.704;2024-01-27T00:27:52;98136.66;;;3.97;70.80
56894;BME280;43392;50.078;13.704;2024-01-27T00:30:19;98139.72;;;3.94;70.95
56894;BME280;43392;50.078;13.704;2024-01-27T00:32:46;98139.09;;;3.92;70.52
56894;BME280;43392;50.078;13.704;2024-01-27T00:35:13;98142.56;;;3.92;70.68
56894;BME280;43392;50.078;13.704;2024-01-27T00:37:40;98135.03;;;3.89;70.78
56894;BME280;43392;50.078;13.704;2024-01-27T00:40:10;98136.25;;;3.87;70.82
56894;BME280;43392;50.078;13.704;2024-01-27T00:42:37;98139.09;;;3.85;70.96
56894;BME280;43392;50.078;13.704;2024-01-27T00:45:05;98141.13;;;3.83;71.08
56894;BME280;43392;50.078;13.704;2024-01-27T00:47:32;98131.97;;;3.79;71.04
56894;BME280;43392;50.078;13.704;2024-01-27T00:49:58;98142.97;;;3.76;71.15
56894;BME280;43392;50.078;13.704;2024-01-27T00:52:26;98143.59;;;3.72;71.46
56894;BME280;43392;50.078;13.704;2024-01-27T00:54:53;98140.50;;;3.68;71.40
56894;BME280;43392;50.078;13.704;2024-01-27T00:57:21;98138.28;;;3.65;71.37
56894;BME280;43392;50.078;13.704;2024-01-27T00:59:47;98136.03;;;3.62;71.59
56894;BME280;43392;50.078;13.704;2024-01-27T01:02:14;98146.22;;;3.59;71.64
56894;BME280;43392;50.078;13.704;2024-01-27T01:04:40;98135.00;;;3.50;71.95
56894;BME280;43392;50.078;13.704;2024-01-27T01:07:07;98134.78;;;3.52;72.50
56894;BME280;43392;50.078;13.704;2024-01-27T01:09:34;98136.00;;;3.49;73.50
56894;BME280;43392;50.078;13.704;2024-01-27T01:12:01;98152.50;;;3.38;74.80
56894;BME280;43392;50.078;13.704;2024-01-27T01:14:29;98153.72;;;3.29;75.81
56894;BME280;43392;50.078;13.704;2024-01-27T01:16:55;98152.25;;;3.20;76.94
56894;BME280;43392;50.078;13.704;2024-01-27T01:19:22;98150.78;;;3.11;78.21
56894;BME280;43392;50.078;13.704;2024-01-27T01:21:48;98164.88;;;3.11;78.68
56894;BME280;43392;50.078;13.704;2024-01-27T01:24:15;98156.91;;;3.11;78.92
56894;BME280;43392;50.078;13.704;2024-01-27T01:26:42;98168.97;;;3.14;79.14
56894;BME280;43392;50.078;13.704;2024-01-27T01:29:08;98163.88;;;3.19;79.29
56894;BME280;43392;50.078;13.704;2024-01-27T01:31:36;98168.34;;;3.18;79.38
56894;BME280;43392;50.078;13.704;2024-01-27T01:34:03;98178.75;;;3.20;79.49
56894;BME280;43392;50.078;13.704;2024-01-27T01:36:29;98175.69;;;3.23;79.23
56894;BME280;43392;50.078;13.704;2024-01-27T01:38:56;98182.25;;;3.27;79.26
56894;BME280;43392;50.078;13.704;2024-01-27T01:41:23;98191.59;;;3.23;79.51
56894;BME280;43392;50.078;13.704;2024-01-27T01:43:49;98193.66;;;3.27;79.29
56894;BME280;43392;50.078;13.704;2024-01-27T01:46:16;98198.78;;;3.29;78.98
56894;BME280;43392;50.078;13.704;2024-01-27T01:48:44;98187.13;;;3.30;78.65
56894;BME280;43392;50.078;13.704;2024-01-27T01:51:11;98209.59;;;3.34;78.49
56894;BME280;43392;50.078;13.704;2024-01-27T01:53:38;98213.72;;;3.43;78.41
56894;BME280;43392;50.078;13.704;2024-01-27T01:56:06;98203.13;;;3.50;77.95
56894;BME280;43392;50.078;13.704;2024-01-27T01:58:34;98200.69;;;3.55;77.57
56894;BME280;43392;50.078;13.704;2024-01-27T02:01:00;98203.94;;;3.50;76.51
56894;BME280;43392;50.078;13.704;2024-01-27T02:03:27;98204.75;;;3.51;76.38
56894;BME280;43392;50.078;13.704;2024-01-27T02:05:56;98206.19;;;3.53;75.89
56894;BME280;43392;50.078;13.704;2024-01-27T02:08:22;98204.16;;;3.55;75.65
56894;BME280;43392;50.078;13.704;2024-01-27T02:10:49;98214.38;;;3.58;75.52
56894;BME280;43392;50.078;13.704;2024-01-27T02:13:16;98206.41;;;3.58;74.80
56894;BME280;43392;50.078;13.704;2024-01-27T02:15:44;98221.91;;;3.55;73.88
56894;BME280;43392;50.078;13.704;2024-01-27T02:18:11;98228.41;;;3.52;73.96
56894;BME280;43392;50.078;13.704;2024-01-27T02:20:37;98218.63;;;3.46;73.54
56894;BME280;43392;50.078;13.704;2024-01-27T02:23:06;98220.84;;;3.43;73.36
56894;BME280;43392;50.078;13.704;2024-01-27T02:25:34;98223.09;;;3.39;73.43
56894;BME280;43392;50.078;13.704;2024-01-27T02:28:01;98221.81;;;3.35;73.42
56894;BME280;43392;50.078;13.704;2024-01-27T02:30:29;98226.50;;;3.33;73.31
56894;BME280;43392;50.078;13.704;2024-01-27T02:32:56;98224.88;;;3.32;73.11
56894;BME280;43392;50.078;13.704;2024-01-27T02:35:22;98229.75;;;3.28;73.17
56894;BME280;43392;50.078;13.704;2024-01-27T02:37:49;98230.59;;;3.29;73.00
56894;BME280;43392;50.078;13.704;2024-01-27T02:40:16;98241.59;;;3.26;73.01
56894;BME280;43392;50.078;13.704;2024-01-27T02:42:44;98233.41;;;3.21;73.17
56894;BME280;43392;50.078;13.704;2024-01-27T02:45:10;98240.34;;;3.22;72.86
56894;BME280;43392;50.078;13.704;2024-01-27T02:47:37;98242.59;;;3.25;73.03
56894;BME280;43392;50.078;13.704;2024-01-27T02:50:05;98238.72;;;3.27;72.81
56894;BME280;43392;50.078;13.704;2024-01-27T02:52:32;98228.94;;;3.28;72.72
56894;BME280;43392;50.078;13.704;2024-01-27T02:54:59;98236.28;;;3.32;72.68
56894;BME280;43392;50.078;13.704;2024-01-27T02:57:25;98231.44;;;3.36;72.79
56894;BME280;43392;50.078;13.704;2024-01-27T02:59:53;98237.97;;;3.40;72.61
56894;BME280;43392;50.078;13.704;2024-01-27T03:02:20;98248.19;;;3.43;72.87
56894;BME280;43392;50.078;13.704;2024-01-27T03:04:47;98238.78;;;3.47;72.74
56894;BME280;43392;50.078;13.704;2024-01-27T03:07:13;98243.09;;;3.48;72.73
56894;BME280;43392;50.078;13.704;2024-01-27T03:09:40;98243.31;;;3.53;72.55
56894;BME280;43392;50.078;13.704;2024-01-27T03:12:07;98242.28;;;3.54;72.60
56894;BME280;43392;50.078;13.704;2024-01-27T03:14:34;98256.56;;;3.53;72.11
56894;BME280;43392;50.078;13.704;2024-01-27T03:17:02;98258.41;;;3.53;72.06
56894;BME280;43392;50.078;13.704;2024-01-27T03:19:28;98265.31;;;3.54;71.95
56894;BME280;43392;50.078;13.704;2024-01-27T03:21:55;98273.09;;;3.55;71.96
56894;BME280;43392;50.078;13.704;2024-01-27T03:24:22;98277.38;;;3.56;71.67
56894;BME280;43392;50.078;13.704;2024-01-27T03:26:48;98271.06;;;3.57;71.61
56894;BME280;43392;50.078;13.704;2024-01-27T03:29:15;98263.72;;;3.59;71.61
56894;BME280;43392;50.078;13.704;2024-01-27T03:31:41;98268.03;;;3.60;71.68
56894;BME280;43392;50.078;13.704;2024-01-27T03:34:10;98271.28;;;3.62;71.50
56894;BME280;43392;50.078;13.704;2024-01-27T03:36:36;98272.13;;;3.63;71.58
56894;BME280;43392;50.078;13.704;2024-01-27T03:39:03;98280.91;;;3.63;71.52
56894;BME280;43392;50.078;13.704;2024-01-27T03:41:29;98273.94;;;3.56;71.32
56894;BME280;43392;50.078;13.704;2024-01-27T03:43:56;98276.16;;;3.52;71.39
56894;BME280;43392;50.078;13.704;2024-01-27T03:46:23;98272.06;;;3.50;71.58
56894;BME280;43392;50.078;13.704;2024-01-27T03:48:49;98283.06;;;3.47;71.47
56894;BME280;43392;50.078;13.704;2024-01-27T03:51:17;98282.25;;;3.46;71.70
56894;BME280;43392;50.078;13.704;2024-01-27T03:53:44;98279.16;;;3.43;72.01
56894;BME280;43392;50.078;13.704;2024-01-27T03:56:11;98290.38;;;3.45;71.82
56894;BME280;43392;50.078;13.704;2024-01-27T03:58:38;98298.94;;;3.40;71.77
56894;BME280;43392;50.078;13.704;2024-01-27T04:01:05;98286.50;;;3.34;71.88
56894;BME280;43392;50.078;13.704;2024-01-27T04:03:31;98298.22;;;3.18;71.90
56894;BME280;43392;50.078;13.704;2024-01-27T04:05:58;98305.31;;;3.11;72.07
56894;BME280;43392;50.078;13.704;2024-01-27T04:08:29;98313.25;;;3.05;72.38
56894;BME280;43392;50.078;13.704;2024-01-27T04:10:55;98313.75;;;2.94;72.74
56894;BME280;43392;50.078;13.704;2024-01-27T04:13:22;98312.72;;;2.88;72.81
56894;BME280;43392;50.078;13.704;2024-01-27T04:15:48;98318.56;;;2.84;72.81
56894;BME280;43392;50.078;13.704;2024-01-27T04:18:16;98327.94;;;2.80;72.86
56894;BME280;43392;50.078;13.704;2024-01-27T04:20:43;98325.50;;;2.78;73.13
56894;BME280;43392;50.078;13.704;2024-01-27T04:23:11;98324.66;;;2.78;73.07
56894;BME280;43392;50.078;13.704;2024-01-27T04:25:39;98328.75;;;2.80;73.08
56894;BME280;43392;50.078;13.704;2024-01-27T04:28:06;98347.09;;;2.82;73.00
56894;BME280;43392;50.078;13.704;2024-01-27T04:30:34;98337.91;;;2.78;72.84
56894;BME280;43392;50.078;13.704;2024-01-27T04:33:01;98355.88;;;2.82;72.94
56894;BME280;43392;50.078;13.704;2024-01-27T04:35:28;98354.03;;;2.83;72.76
56894;BME280;43392;50.078;13.704;2024-01-27T04:37:54;98361.78;;;2.84;72.70
56894;BME280;43392;50.078;13.704;2024-01-27T04:40:21;98352.03;;;2.85;72.74
56894;BME280;43392;50.078;13.704;2024-01-27T04:42:49;98356.13;;;2.87;72.76
56894;BME280;43392;50.078;13.704;2024-01-27T04:45:15;98355.91;;;2.89;72.49
56894;BME280;43392;50.078;13.704;2024-01-27T04:47:42;98366.34;;;2.90;72.60
56894;BME280;43392;50.078;13.704;2024-01-27T04:50:09;98368.78;;;2.92;72.39
56894;BME280;43392;50.078;13.704;2024-01-27T04:52:35;98371.44;;;2.92;72.24
56894;BME280;43392;50.078;13.704;2024-01-27T04:55:02;98356.34;;;2.92;72.05
56894;BME280;43392;50.078;13.704;2024-01-27T04:57:29;98360.63;;;2.93;71.93
56894;BME280;43392;50.078;13.704;2024-01-27T04:59:58;98357.97;;;2.93;71.89
56894;BME280;43392;50.078;13.704;2024-01-27T05:02:24;98353.88;;;2.91;71.53
56894;BME280;43392;50.078;13.704;2024-01-27T05:04:51;98352.06;;;2.91;71.23
56894;BME280;43392;50.078;13.704;2024-01-27T05:07:18;98351.19;;;2.84;71.08
56894;BME280;43392;50.078;13.704;2024-01-27T05:09:44;98360.59;;;2.87;70.83
56894;BME280;43392;50.078;13.704;2024-01-27T05:12:11;98365.88;;;2.87;70.66
56894;BME280;43392;50.078;13.704;2024-01-27T05:14:37;98367.91;;;2.85;70.58
56894;BME280;43392;50.078;13.704;2024-01-27T05:17:05;98376.22;;;2.82;70.63
56894;BME280;43392;50.078;13.704;2024-01-27T05:19:32;98372.75;;;2.81;70.58
56894;BME280;43392;50.078;13.704;2024-01-27T05:21:58;98373.97;;;2.79;70.28
56894;BME280;43392;50.078;13.704;2024-01-27T05:24:25;98373.75;;;2.74;70.40
56894;BME280;43392;50.078;13.704;2024-01-27T05:26:52;98375.94;;;2.70;70.36
56894;BME280;43392;50.078;13.704;2024-01-27T05:29:18;98373.50;;;2.68;70.28
56894;BME280;43392;50.078;13.704;2024-01-27T05:31:45;98373.88;;;2.65;70.26
56894;BME280;43392;50.078;13.704;2024-01-27T05:34:13;98370.75;;;2.62;70.61
56894;BME280;43392;50.078;13.704;2024-01-27T05:36:40;98377.09;;;2.61;70.32
56894;BME280;43392;50.078;13.704;2024-01-27T05:39:06;98370.50;;;2.57;70.35
56894;BME280;43392;50.078;13.704;2024-01-27T05:41:33;98381.06;;;2.50;70.24
56894;BME280;43392;50.078;13.704;2024-01-27T05:44:00;98374.06;;;2.43;70.51
56894;BME280;43392;50.078;13.704;2024-01-27T05:46:27;98378.47;;;2.36;70.76
56894;BME280;43392;50.078;13.704;2024-01-27T05:48:53;98358.84;;;2.30;70.93
56894;BME280;43392;50.078;13.704;2024-01-27T05:51:24;98362.91;;;2.26;71.16
56894;BME280;43392;50.078;13.704;2024-01-27T05:53:51;98373.06;;;2.23;71.11
56894;BME280;43392;50.078;13.704;2024-01-27T05:56:17;98364.03;;;2.17;71.66
56894;BME280;43392;50.078;13.704;2024-01-27T05:58:45;98360.31;;;2.12;71.88
56894;BME280;43392;50.078;13.704;2024-01-27T06:01:12;98360.25;;;2.05;72.25
56894;BME280;43392;50.078;13.704;2024-01-27T06:03:41;98365.63;;;1.97;72.34
56894;BME280;43392;50.078;13.704;2024-01-27T06:06:07;98368.28;;;1.97;72.52
56894;BME280;43392;50.078;13.704;2024-01-27T06:08:35;98361.63;;;2.01;72.72
56894;BME280;43392;50.078;13.704;2024-01-27T06:11:02;98362.44;;;2.01;72.42
56894;BME280;43392;50.078;13.704;2024-01-27T06:13:29;98368.56;;;2.02;72.38
56894;BME280;43392;50.078;13.704;2024-01-27T06:15:58;98369.13;;;1.97;72.70
56894;BME280;43392;50.078;13.704;2024-01-27T06:18:24;98375.66;;;2.01;72.71
56894;BME280;43392;50.078;13.704;2024-01-27T06:20:51;98386.69;;;2.05;72.77
56894;BME280;43392;50.078;13.704;2024-01-27T06:23:17;98386.13;;;2.10;72.33
56894;BME280;43392;50.078;13.704;2024-01-27T06:25:45;98407.09;;;2.11;72.38
56894;BME280;43392;50.078;13.704;2024-01-27T06:28:12;98400.81;;;2.12;72.32
56894;BME280;43392;50.078;13.704;2024-01-27T06:30:39;98400.63;;;2.14;72.40
56894;BME280;43392;50.078;13.704;2024-01-27T06:33:05;98398.59;;;2.16;72.40
56894;BME280;43392;50.078;13.704;2024-01-27T06:35:32;98406.38;;;2.17;72.35
56894;BME280;43392;50.078;13.704;2024-01-27T06:37:58;98404.56;;;2.18;72.55
56894;BME280;43392;50.078;13.704;2024-01-27T06:40:25;98393.97;;;2.18;72.36
56894;BME280;43392;50.078;13.704;2024-01-27T06:42:53;98401.91;;;2.18;72.33
56894;BME280;43392;50.078;13.704;2024-01-27T06:45:20;98392.53;;;2.15;72.39
56894;BME280;43392;50.078;13.704;2024-01-27T06:47:46;98400.63;;;2.14;72.64
56894;BME280;43392;50.078;13.704;2024-01-27T06:50:13;98410.41;;;2.13;72.51
56894;BME280;43392;50.078;13.704;2024-01-27T06:52:40;98405.13;;;2.13;72.79
56894;BME280;43392;50.078;13.704;2024-01-27T06:55:07;98412.50;;;2.18;72.67
56894;BME280;43392;50.078;13.704;2024-01-27T06:57:36;98408.81;;;2.19;72.54
56894;BME280;43392;50.078;13.704;2024-01-27T07:00:05;98415.78;;;2.20;72.59
56894;BME280;43392;50.078;13.704;2024-01-27T07:02:32;98412.28;;;2.19;72.78
56894;BME280;43392;50.078;13.704;2024-01-27T07:04:58;98428.53;;;2.16;72.56
56894;BME280;43392;50.078;13.704;2024-01-27T07:07:27;98435.03;;;2.14;72.90
56894;BME280;43392;50.078;13.704;2024-01-27T07:09:55;98420.16;;;2.13;72.84
56894;BME280;43392;50.078;13.704;2024-01-27T07:12:21;98438.13;;;2.17;72.87
56894;BME280;43392;50.078;13.704;2024-01-27T07:14:48;98431.81;;;2.18;72.98
56894;BME280;43392;50.078;13.704;2024-01-27T07:17:16;98448.34;;;2.20;72.98
56894;BME280;43392;50.078;13.704;2024-01-27T07:19:42;98448.41;;;2.27;73.06
56894;BME280;43392;50.078;13.704;2024-01-27T07:22:09;98447.50;;;2.34;72.79
56894;BME280;43392;50.078;13.704;2024-01-27T07:24:36;98441.44;;;2.40;72.51
56894;BME280;43392;50.078;13.704;2024-01-27T07:27:03;98443.72;;;2.43;72.36
56894;BME280;43392;50.078;13.704;2024-01-27T07:29:30;98452.75;;;2.49;72.64
56894;BME280;43392;50.078;13.704;2024-01-27T07:31:56;98454.94;;;2.45;72.30
56894;BME280;43392;50.078;13.704;2024-01-27T07:34:24;98451.38;;;2.38;72.36
56894;BME280;43392;50.078;13.704;2024-01-27T07:36:51;98459.06;;;2.33;72.42
56894;BME280;43392;50.078;13.704;2024-01-27T07:39:17;98451.50;;;2.30;72.40
56894;BME280;43392;50.078;13.704;2024-01-27T07:41:44;98455.34;;;2.28;72.56
56894;BME280;43392;50.078;13.704;2024-01-27T07:44:12;98459.00;;;2.27;72.55
56894;BME280;43392;50.078;13.704;2024-01-27T07:46:40;98461.84;;;2.25;72.57
56894;BME280;43392;50.078;13.704;2024-01-27T07:49:06;98459.84;;;2.27;72.69
56894;BME280;43392;50.078;13.704;2024-01-27T07:51:34;98461.66;;;2.27;72.93
56894;BME280;43392;50.078;13.704;2024-01-27T07:54:01;98457.56;;;2.24;73.02
56894;BME280;43392;50.078;13.704;2024-01-27T07:56:28;98468.75;;;2.26;73.26
56894;BME280;43392;50.078;13.704;2024-01-27T07:58:54;98472.66;;;2.30;73.06
56894;BME280;43392;50.078;13.704;2024-01-27T08:01:21;98470.13;;;2.37;73.07
56894;BME280;43392;50.078;13.704;2024-01-27T08:03:47;98466.44;;;2.38;73.12
56894;BME280;43392;50.078;13.704;2024-01-27T08:06:16;98464.44;;;2.40;73.29
56894;BME280;43392;50.078;13.704;2024-01-27T08:08:46;98466.28;;;2.39;73.25
56894;BME280;43392;50.078;13.704;2024-01-27T08:11:13;98469.09;;;2.38;73.47
56894;BME280;43392;50.078;13.704;2024-01-27T08:13:40;98475.41;;;2.37;73.58
56894;BME280;43392;50.078;13.704;2024-01-27T08:16:06;98481.13;;;2.40;73.61
56894;BME280;43392;50.078;13.704;2024-01-27T08:18:35;98486.06;;;2.43;73.61
56894;BME280;43392;50.078;13.704;2024-01-27T08:21:02;98486.34;;;2.48;73.60
56894;BME280;43392;50.078;13.704;2024-01-27T08:23:29;98490.44;;;2.51;73.33
56894;BME280;43392;50.078;13.704;2024-01-27T08:25:57;98493.50;;;2.54;73.32
56894;BME280;43392;50.078;13.704;2024-01-27T08:28:24;98497.25;;;2.60;73.09
56894;BME280;43392;50.078;13.704;2024-01-27T08:30:50;98510.28;;;2.76;73.06
56894;BME280;43392;50.078;13.704;2024-01-27T08:33:17;98514.50;;;2.92;72.71
56894;BME280;43392;50.078;13.704;2024-01-27T08:35:46;98523.00;;;3.08;72.41
56894;BME280;43392;50.078;13.704;2024-01-27T08:38:12;98524.13;;;3.20;72.16
56894;BME280;43392;50.078;13.704;2024-01-27T08:40:39;98525.09;;;3.34;71.73
56894;BME280;43392;50.078;13.704;2024-01-27T08:43:07;98531.06;;;3.43;71.24
56894;BME280;43392;50.078;13.704;2024-01-27T08:45:35;98530.72;;;3.52;71.10
56894;BME280;43392;50.078;13.704;2024-01-27T08:48:02;98543.84;;;3.60;70.84
56894;BME280;43392;50.078;13.704;2024-01-27T08:50:29;98550.66;;;3.69;70.50
56894;BME280;43392;50.078;13.704;2024-01-27T08:52:56;98534.78;;;3.76;70.31
56894;BME280;43392;50.078;13.704;2024-01-27T08:55:22;98547.69;;;3.85;70.21
56894;BME280;43392;50.078;13.704;2024-01-27T08:57:49;98547.75;;;3.92;69.90
56894;BME280;43392;50.078;13.704;2024-01-27T09:00:18;98544.53;;;3.96;69.42
56894;BME280;43392;50.078;13.704;2024-01-27T09:02:45;98542.53;;;4.05;69.33
56894;BME280;43392;50.078;13.704;2024-01-27T09:05:13;98537.03;;;4.07;68.88
56894;BME280;43392;50.078;13.704;2024-01-27T09:07:39;98559.88;;;4.08;68.91
56894;BME280;43392;50.078;13.704;2024-01-27T09:10:07;98558.09;;;4.15;68.83
56894;BME280;43392;50.078;13.704;2024-01-27T09:12:33;98582.59;;;4.17;68.61
56894;BME280;43392;50.078;13.704;2024-01-27T09:15:00;98564.66;;;4.19;68.61
56894;BME280;43392;50.078;13.704;2024-01-27T09:17:28;98567.34;;;4.25;68.22
56894;BME280;43392;50.078;13.704;2024-01-27T09:19:54;98563.88;;;4.25;67.83
56894;BME280;43392;50.078;13.704;2024-01-27T09:22:21;98572.47;;;4.27;67.89
56894;BME280;43392;50.078;13.704;2024-01-27T09:24:48;98574.09;;;4.28;67.45
56894;BME280;43392;50.078;13.704;2024-01-27T09:27:14;98577.38;;;4.30;67.48
56894;BME280;43392;50.078;13.704;2024-01-27T09:29:42;98572.91;;;4.30;67.41
56894;BME280;43392;50.078;13.704;2024-01-27T09:32:09;98567.38;;;4.32;67.63
56894;BME280;43392;50.078;13.704;2024-01-27T09:34:37;98576.38;;;4.31;66.81
56894;BME280;43392;50.078;13.704;2024-01-27T09:37:04;98567.38;;;4.32;67.00
56894;BME280;43392;50.078;13.704;2024-01-27T09:39:31;98560.44;;;4.31;66.85
56894;BME280;43392;50.078;13.704;2024-01-27T09:41:58;98555.38;;;4.36;66.64
56894;BME280;43392;50.078;13.704;2024-01-27T09:44:28;98550.25;;;4.41;66.56
56894;BME280;43392;50.078;13.704;2024-01-27T09:46:55;98555.19;;;4.44;65.95
56894;BME280;43392;50.078;13.704;2024-01-27T09:49:21;98563.97;;;4.44;65.60
56894;BME280;43392;50.078;13.704;2024-01-27T09:51:49;98558.28;;;4.47;65.34
56894;BME280;43392;50.078;13.704;2024-01-27T09:54:16;98574.63;;;4.51;64.82
56894;BME280;43392;50.078;13.704;2024-01-27T09:56:46;98578.94;;;4.58;65.01
56894;BME280;43392;50.078;13.704;2024-01-27T09:59:13;98583.50;;;4.64;64.68
56894;BME280;43392;50.078;13.704;2024-01-27T10:01:41;98593.69;;;4.67;64.64
56894;BME280;43392;50.078;13.704;2024-01-27T10:04:08;98594.13;;;4.71;64.28
56894;BME280;43392;50.078;13.704;2024-01-27T10:06:35;98595.56;;;4.67;63.46
56894;BME280;43392;50.078;13.704;2024-01-27T10:09:03;98601.72;;;4.74;63.83
56894;BME280;43392;50.078;13.704;2024-01-27T10:11:31;98585.59;;;4.82;63.80
56894;BME280;43392;50.078;13.704;2024-01-27T10:14:00;98583.78;;;4.89;63.53
56894;BME280;43392;50.078;13.704;2024-01-27T10:16:28;98577.66;;;4.89;63.29
56894;BME280;43392;50.078;13.704;2024-01-27T10:19:01;98582.38;;;4.93;63.25
56894;BME280;43392;50.078;13.704;2024-01-27T10:21:28;98588.72;;;4.99;63.46
56894;BME280;43392;50.078;13.704;2024-01-27T10:23:55;98587.31;;;5.03;63.15
56894;BME280;43392;50.078;13.704;2024-01-27T10:26:23;98587.31;;;5.09;63.10
56894;BME280;43392;50.078;13.704;2024-01-27T10:28:53;98592.63;;;5.09;63.30
56894;BME280;43392;50.078;13.704;2024-01-27T10:31:20;98593.88;;;5.13;62.91
56894;BME280;43392;50.078;13.704;2024-01-27T10:33:53;98591.22;;;5.13;62.37
56894;BME280;43392;50.078;13.704;2024-01-27T10:36:21;98587.34;;;5.22;62.61
56894;BME280;43392;50.078;13.704;2024-01-27T10:38:48;98590.00;;;5.29;62.29
56894;BME280;43392;50.078;13.704;2024-01-27T10:41:21;98594.50;;;5.28;61.82
56894;BME280;43392;50.078;13.704;2024-01-27T10:43:50;98591.06;;;5.34;62.04
56894;BME280;43392;50.078;13.704;2024-01-27T10:46:18;98589.00;;;5.36;62.10
56894;BME280;43392;50.078;13.704;2024-01-27T10:48:49;98580.03;;;5.38;61.91
56894;BME280;43392;50.078;13.704;2024-01-27T10:51:18;98586.78;;;5.40;61.71
56894;BME280;43392;50.078;13.704;2024-01-27T10:53:52;98581.47;;;5.40;61.83
56894;BME280;43392;50.078;13.704;2024-01-27T10:56:20;98587.38;;;5.49;61.90
56894;BME280;43392;50.078;13.704;2024-01-27T10:58:51;98575.31;;;5.46;61.08
56894;BME280;43392;50.078;13.704;2024-01-27T11:01:19;98580.22;;;5.49;60.94
56894;BME280;43392;50.078;13.704;2024-01-27T11:03:48;98585.34;;;5.57;60.88
56894;BME280;43392;50.078;13.704;2024-01-27T11:06:17;98579.44;;;5.62;61.23
56894;BME280;43392;50.078;13.704;2024-01-27T11:08:47;98583.31;;;5.66;61.04
56894;BME280;43392;50.078;13.704;2024-01-27T11:11:16;98594.16;;;5.71;61.15
56894;BME280;43392;50.078;13.704;2024-01-27T11:13:43;98587.22;;;5.76;61.07
56894;BME280;43392;50.078;13.704;2024-01-27T11:16:18;98592.53;;;5.76;60.63
56894;BME280;43392;50.078;13.704;2024-01-27T11:18:45;98579.41;;;5.75;60.51
56894;BME280;43392;50.078;13.704;2024-01-27T11:21:18;98591.47;;;5.84;60.26
56894;BME280;43392;50.078;13.704;2024-01-27T11:23:45;98589.47;;;5.92;60.48
56894;BME280;43392;50.078;13.704;2024-01-27T11:26:18;98584.97;;;5.93;60.01
56894;BME280;43392;50.078;13.704;2024-01-27T11:28:45;98584.16;;;5.92;60.32
56894;BME280;43392;50.078;13.704;2024-01-27T11:31:12;98581.47;;;5.99;60.21
56894;BME280;43392;50.078;13.704;2024-01-27T11:33:43;98573.09;;;6.02;59.65
56894;BME280;43392;50.078;13.704;2024-01-27T11:36:18;98568.97;;;6.06;60.24
56894;BME280;43392;50.078;13.704;2024-01-27T11:38:45;98570.22;;;6.10;59.68
56894;BME280;43392;50.078;13.704;2024-01-27T11:41:12;98568.38;;;6.04;59.19
56894;BME280;43392;50.078;13.704;2024-01-27T11:43:39;98568.59;;;6.03;59.60
56894;BME280;43392;50.078;13.704;2024-01-27T11:46:06;98580.06;;;6.03;59.47
56894;BME280;43392;50.078;13.704;2024-01-27T11:48:33;98573.47;;;6.12;59.82
56894;BME280;43392;50.078;13.704;2024-01-27T11:51:11;98604.41;;;6.13;59.21
56894;BME280;43392;50.078;13.704;2024-01-27T11:53:38;98576.75;;;6.14;59.07
56894;BME280;43392;50.078;13.704;2024-01-27T11:56:05;98586.19;;;6.17;59.10
56894;BME280;43392;50.078;13.704;2024-01-27T11:58:32;98587.38;;;6.21;58.91
56894;BME280;43392;50.078;13.704;2024-01-27T12:00:59;98593.94;;;6.31;59.28
56894;BME280;43392;50.078;13.704;2024-01-27T12:03:27;98586.75;;;6.38;58.65
56894;BME280;43392;50.078;13.704;2024-01-27T12:05:54;98581.38;;;6.45;58.66
56894;BME280;43392;50.078;13.704;2024-01-27T12:08:23;98577.28;;;6.49;59.05
56894;BME280;43392;50.078;13.704;2024-01-27T12:10:49;98595.09;;;6.55;58.95
56894;BME280;43392;50.078;13.704;2024-01-27T12:13:16;98578.88;;;6.56;58.71
56894;BME280;43392;50.078;13.704;2024-01-27T12:15:43;98587.50;;;6.58;58.15
56894;BME280;43392;50.078;13.704;2024-01-27T12:18:10;98578.47;;;6.59;57.87
56894;BME280;43392;50.078;13.704;2024-01-27T12:20:37;98571.91;;;6.62;57.92
56894;BME280;43392;50.078;13.704;2024-01-27T12:23:05;98570.66;;;6.64;57.88
56894;BME280;43392;50.078;13.704;2024-01-27T12:25:33;98558.34;;;6.70;58.11
56894;BME280;43392;50.078;13.704;2024-01-27T12:28:02;98563.03;;;6.75;57.86
56894;BME280;43392;50.078;13.704;2024-01-27T12:30:29;98564.06;;;6.74;57.96
56894;BME280;43392;50.078;13.704;2024-01-27T12:32:55;98555.03;;;6.75;57.87
56894;BME280;43392;50.078;13.704;2024-01-27T12:35:23;98558.31;;;6.77;57.79
56894;BME280;43392;50.078;13.704;2024-01-27T12:37:52;98567.91;;;6.84;58.31
56894;BME280;43392;50.078;13.704;2024-01-27T12:40:20;98552.38;;;6.75;58.10
56894;BME280;43392;50.078;13.704;2024-01-27T12:42:48;98568.75;;;6.85;58.43
56894;BME280;43392;50.078;13.704;2024-01-27T12:45:15;98573.81;;;6.93;58.65
56894;BME280;43392;50.078;13.704;2024-01-27T12:47:41;98577.09;;;6.95;58.46
56894;BME280;43392;50.078;13.704;2024-01-27T12:50:09;98579.16;;;6.93;58.51
56894;BME280;43392;50.078;13.704;2024-01-27T12:52:36;98583.22;;;7.02;58.45
56894;BME280;43392;50.078;13.704;2024-01-27T12:55:04;98581.75;;;7.06;57.75
56894;BME280;43392;50.078;13.704;2024-01-27T12:57:31;98592.00;;;7.09;58.01
56894;BME280;43392;50.078;13.704;2024-01-27T12:59:59;98581.13;;;7.10;58.03